CYWJ

Déline Airport

Déline, Northwest Territories, Canada
METAR CYWJ 140000Z 03004KT 40SM FEW020 M28/M31 A2956 RMK SC1 SC TR -19.3/-28.1/0/36 MUCH LOOSE LAST STFD OBS/NXT 141400UTC SLP041
Observed Flight Rules
Dec-14 @ 00:00 UTC (43 minutes ago) Visual Flight Rules
Wind Visibility Clouds
30° at 4 knots 40 miles
  • Few at 2,000' AGL
Temperatures Readings
Current -28°C / -18°F
Dewpoint -31°C / -24°F
Humidity 75%
Altimeter 29.56" Hg
Pressure 1004.1 hPa
Elevation 176
METAR CYWJ 140000Z 03004KT 40SM FEW020 M28/M31 A2956 RMK SC1 SC TR -19.3/-28.1/0/36 MUCH LOOSE LAST STFD OBS/NXT 141400UTC SLP041
Observed Flight Rules
Dec-14 @ 00:00 UTC
(43 minutes ago)
VFR
Wind Visibility
30° at 4 knots 40 miles
Clouds
  • Few at 2,000' AGL
Temperature Dewpoint
-28°C / -18°F -31°C / -24°F
Humidity Altimeter Pressure
75% 29.56" Hg 1004.1 hPa